This is the latest recevied weather packets stored in our database for station/object IZ1BLA-10. If no packets are shown the sender has not sent any weather packets the latest 10 day(s).
| Time | Temp. | Humidity | Pressure | Rain* | Wind** | Luminosity | Snow |
|---|---|---|---|---|---|---|---|
| 1777879753 | 16.11° C | 53% | 1017.1 hPa | - | - | - | - |
| 1777879152 | 15.56° C | 54% | 1016.9 hPa | - | - | - | - |
| 1777878553 | 14.44° C | 57% | 1017.4 hPa | - | - | - | - |
| 1777877952 | 15° C | 59% | 1017.1 hPa | - | - | - | - |
| 1777877352 | 15.56° C | 54% | 1016.7 hPa | - | - | - | - |
| 1777876752 | 14.44° C | 58% | 1017 hPa | - | - | - | - |
| 1777876152 | 12.22° C | 64% | 1017.4 hPa | - | - | - | - |
| 1777875553 | 12.78° C | 66% | 1017.2 hPa | - | - | - | - |
| 1777874953 | 11.67° C | 70% | 1017.5 hPa | - | - | - | - |
| 1777874352 | 11.67° C | 72% | 1017.6 hPa | - | - | - | - |
| 1777873752 | 12.22° C | 75% | 1017.3 hPa | - | - | - | - |
| 1777873152 | 12.22° C | 73% | 1017.4 hPa | - | - | - | - |
| 1777872552 | 12.22° C | 70% | 1017.4 hPa | - | - | - | - |
| 1777871952 | 12.22° C | 63% | 1017.3 hPa | - | - | - | - |
| 1777871352 | 11.67° C | 66% | 1017.6 hPa | - | - | - | - |
| 1777870752 | 11.11° C | 74% | 1017.6 hPa | - | - | - | - |
| 1777870152 | 11.67° C | 75% | 1017.4 hPa | - | - | - | - |
| 1777869552 | 11.67° C | 72% | 1017.2 hPa | - | - | - | - |
| 1777868952 | 11.67° C | 66% | 1017.2 hPa | - | - | - | - |
| 1777868352 | 11.67° C | 68% | 1017.2 hPa | - | - | - | - |
| 1777867752 | 12.22° C | 70% | 1017 hPa | - | - | - | - |
| 1777867152 | 11.67° C | 66% | 1017.3 hPa | - | - | - | - |
| 1777866552 | 11.11° C | 68% | 1017.4 hPa | - | - | - | - |
| 1777865952 | 11.11° C | 70% | 1017.3 hPa | - | - | - | - |
| 1777865352 | 12.22° C | 73% | 1017.1 hPa | - | - | - | - |
* Rain since midnight (hover to see other rain measurements)
** Current wind speed in m/s (hover to see current wind gust speed)